createdAt,value
2022-08-17T00:01:51.982Z,8.13
2022-08-17T00:04:21.490Z,7.05
2022-08-17T00:06:53.333Z,9.50
2022-08-17T00:09:21.469Z,6.95
2022-08-17T00:12:40.764Z,11.80
2022-08-17T00:14:38.825Z,9.57
2022-08-17T00:17:07.075Z,8.10
2022-08-17T00:19:35.203Z,8.02
2022-08-17T00:22:32.177Z,7.20
2022-08-17T00:24:55.370Z,9.55
2022-08-17T00:27:23.585Z,7.88
2022-08-17T00:29:52.156Z,6.35
2022-08-17T00:33:15.526Z,8.55
2022-08-17T00:35:11.203Z,7.18
2022-08-17T00:37:41.406Z,6.55
2022-08-17T00:40:12.288Z,6.53
2022-08-17T00:42:41.005Z,7.40
2022-08-17T00:45:12.206Z,7.95
2022-08-17T00:47:40.795Z,6.78
2022-08-17T00:50:11.778Z,7.38
2022-08-17T00:52:54.811Z,10.30
2022-08-17T00:55:24.118Z,11.02
2022-08-17T00:57:56.601Z,7.28
2022-08-17T01:00:27.523Z,9.30
2022-08-17T01:03:00.244Z,8.32
2022-08-17T01:05:32.005Z,10.15
2022-08-17T01:08:02.918Z,7.50
2022-08-17T01:10:58.384Z,8.13
2022-08-17T01:13:27.745Z,7.03
2022-08-17T01:16:00.431Z,9.43
2022-08-17T01:18:29.203Z,8.50
2022-08-17T01:20:59.815Z,7.82
2022-08-17T01:23:29.874Z,7.60
2022-08-17T01:25:59.876Z,10.07
2022-08-17T01:28:33.336Z,8.88
2022-08-17T01:31:19.751Z,8.93
2022-08-17T01:33:47.879Z,8.82
2022-08-17T01:36:16.062Z,9.88
2022-08-17T01:38:45.558Z,9.30
2022-08-17T01:41:18.056Z,10.52
2022-08-17T01:43:50.880Z,12.18
2022-08-17T01:46:24.378Z,10.47
2022-08-17T01:48:52.652Z,8.93
2022-08-17T01:51:21.710Z,10.73
2022-08-17T01:53:55.490Z,10.63
2022-08-17T01:58:53.565Z,8.60
2022-08-17T02:01:24.613Z,9.48
2022-08-17T02:03:56.304Z,9.27
2022-08-17T02:06:31.338Z,8.57
2022-08-17T02:09:03.852Z,8.73
2022-08-17T02:11:34.316Z,8.02
2022-08-17T02:14:04.096Z,9.93
2022-08-17T02:16:36.961Z,7.10
2022-08-17T02:19:08.613Z,9.85
2022-08-17T02:21:37.499Z,9.18
2022-08-17T02:24:09.432Z,10.45
2022-08-17T02:26:37.987Z,8.43
2022-08-17T02:29:07.286Z,7.90
2022-08-17T02:31:35.651Z,9.27
2022-08-17T02:34:05.339Z,8.73
2022-08-17T02:36:35.292Z,10.38
2022-08-17T02:39:04.988Z,8.10
2022-08-17T02:41:34.867Z,10.30
2022-08-17T02:44:03.020Z,9.60
2022-08-17T02:46:32.334Z,9.77
2022-08-17T02:49:00.473Z,7.53
2022-08-17T02:51:28.898Z,6.78
2022-08-17T02:54:38.930Z,8.77
2022-08-17T02:56:46.983Z,8.73
2022-08-17T02:59:15.105Z,10.70
2022-08-17T03:01:43.271Z,8.43
2022-08-17T03:04:11.785Z,8.77
2022-08-17T03:06:39.886Z,10.18
2022-08-17T03:09:08.153Z,9.13
2022-08-17T03:11:36.405Z,8.35
2022-08-17T03:14:05.937Z,9.07
2022-08-17T03:16:34.055Z,7.45
2022-08-17T03:19:02.910Z,11.23
2022-08-17T03:21:31.064Z,10.35
2022-08-17T03:23:59.264Z,10.60
2022-08-17T03:26:29.637Z,12.88
2022-08-17T03:28:58.154Z,12.40
2022-08-17T03:31:27.698Z,8.20
2022-08-17T03:33:56.452Z,7.80
2022-08-17T03:36:24.844Z,8.95
2022-08-17T03:38:53.131Z,13.23
2022-08-17T03:41:23.021Z,10.18
2022-08-17T03:43:51.340Z,9.50
2022-08-17T03:46:37.084Z,12.73
2022-08-17T03:49:25.854Z,13.57
2022-08-17T03:52:12.097Z,12.57
2022-08-17T03:54:58.245Z,12.00
2022-08-17T03:57:26.942Z,8.70
2022-08-17T03:59:56.160Z,11.13
2022-08-17T04:02:29.418Z,12.95
2022-08-17T04:05:00.037Z,9.25
2022-08-17T04:07:30.855Z,11.48
2022-08-17T04:09:59.573Z,16.60
2022-08-17T04:12:30.869Z,21.63
2022-08-17T04:14:59.443Z,13.95
2022-08-17T04:17:29.866Z,20.40
2022-08-17T04:19:59.326Z,15.65
2022-08-17T04:22:33.203Z,9.95
2022-08-17T04:25:05.342Z,15.32
2022-08-17T04:27:33.645Z,12.00
2022-08-17T04:30:01.906Z,9.65
2022-08-17T04:33:00.439Z,8.00
2022-08-17T04:35:22.914Z,12.25
2022-08-17T04:37:51.464Z,14.32
2022-08-17T04:40:52.770Z,10.50
2022-08-17T04:43:22.250Z,17.00
2022-08-17T04:45:56.137Z,11.25
2022-08-17T04:48:34.764Z,12.73
2022-08-17T04:51:09.863Z,14.38
2022-08-17T04:53:39.556Z,12.52
2022-08-17T04:56:15.923Z,10.35
2022-08-17T04:58:45.633Z,12.88
2022-08-17T05:01:14.036Z,18.70
2022-08-17T05:03:42.865Z,11.68
2022-08-17T05:06:12.514Z,10.55
2022-08-17T05:08:40.690Z,13.27
2022-08-17T05:11:09.310Z,12.43
2022-08-17T05:13:37.483Z,11.02
2022-08-17T05:16:06.660Z,12.45
2022-08-17T05:18:34.879Z,13.13
2022-08-17T05:21:03.826Z,12.38
2022-08-17T05:23:42.712Z,11.27
2022-08-17T05:26:23.148Z,12.80
2022-08-17T05:28:57.194Z,10.65
2022-08-17T05:31:28.081Z,12.03
2022-08-17T05:33:56.230Z,12.10
2022-08-17T05:36:41.743Z,13.93
2022-08-17T05:39:16.858Z,10.70
2022-08-17T05:41:47.448Z,16.80
2022-08-17T05:44:15.825Z,9.18
2022-08-17T05:46:49.946Z,12.60
2022-08-17T05:49:20.500Z,12.30
2022-08-17T05:52:24.673Z,16.75
2022-08-17T05:55:11.401Z,11.23
2022-08-17T05:58:01.059Z,11.90
2022-08-17T06:00:42.031Z,11.07
2022-08-17T06:03:47.582Z,10.32
2022-08-17T06:06:31.959Z,10.43
2022-08-17T06:09:22.932Z,11.75
2022-08-17T06:12:01.237Z,20.50
2022-08-17T06:14:47.248Z,11.10
2022-08-17T06:17:20.078Z,16.42
2022-08-17T06:19:54.609Z,12.32
2022-08-17T06:22:25.746Z,11.18
2022-08-17T06:24:59.037Z,14.00
2022-08-17T06:27:35.694Z,16.05
2022-08-17T06:30:10.034Z,10.48
2022-08-17T06:32:40.616Z,13.75
2022-08-17T06:35:12.113Z,16.05
2022-08-17T06:37:59.516Z,11.75
2022-08-17T06:40:52.390Z,10.35
2022-08-17T06:43:48.003Z,14.43
2022-08-17T06:46:23.054Z,13.77
2022-08-17T06:49:08.028Z,11.20
2022-08-17T06:51:41.847Z,15.40
2022-08-17T06:54:15.493Z,11.32
2022-08-17T06:59:53.177Z,10.00
2022-08-17T07:02:29.390Z,7.50
2022-08-17T07:05:14.326Z,9.25
2022-08-17T07:08:02.764Z,8.85
2022-08-17T07:10:36.443Z,10.10
2022-08-17T07:13:18.203Z,8.82
2022-08-17T07:15:54.017Z,9.95
2022-08-17T07:18:27.906Z,8.30
2022-08-17T07:21:07.652Z,15.52
2022-08-17T07:23:48.734Z,29.90
2022-08-17T07:26:16.980Z,11.73
2022-08-17T07:28:45.875Z,9.35
2022-08-17T07:31:17.303Z,8.50
2022-08-17T07:34:02.270Z,14.75
2022-08-17T07:36:33.913Z,13.93
2022-08-17T07:39:03.429Z,14.10
2022-08-17T07:41:53.053Z,9.98
2022-08-17T07:44:26.227Z,10.07
2022-08-17T07:47:14.434Z,9.23
2022-08-17T07:49:46.115Z,8.32
2022-08-17T07:52:50.752Z,12.20
2022-08-17T07:55:34.918Z,12.05
2022-08-17T07:58:03.687Z,8.70
2022-08-17T08:00:33.663Z,10.18
2022-08-17T08:03:13.369Z,9.10
2022-08-17T08:05:51.108Z,8.98
2022-08-17T08:08:28.227Z,9.13
2022-08-17T08:11:04.273Z,13.20
2022-08-17T08:13:33.635Z,14.13
2022-08-17T08:16:24.426Z,9.18
2022-08-17T08:18:57.753Z,9.10
2022-08-17T08:21:37.508Z,12.07
2022-08-17T08:24:25.885Z,9.45
2022-08-17T08:27:11.673Z,13.38
2022-08-17T08:29:49.576Z,11.05
2022-08-17T08:32:28.073Z,10.23
2022-08-17T08:35:04.904Z,10.18
2022-08-17T08:37:44.316Z,13.68
2022-08-17T08:40:34.592Z,11.77
2022-08-17T08:43:16.541Z,10.20
2022-08-17T08:45:52.723Z,11.25
2022-08-17T08:48:53.408Z,15.68
2022-08-17T08:51:39.221Z,12.63
2022-08-17T08:54:26.977Z,12.82
2022-08-17T08:57:28.046Z,11.15
2022-08-17T09:00:08.680Z,10.48
2022-08-17T09:03:28.073Z,17.88
2022-08-17T09:06:39.158Z,12.88
2022-08-17T09:09:20.382Z,9.88
2022-08-17T09:12:02.963Z,11.45
2022-08-17T09:14:45.000Z,10.18
2022-08-17T09:17:20.328Z,11.68
2022-08-17T09:22:31.633Z,13.57
2022-08-17T09:25:06.916Z,9.07
2022-08-17T09:27:51.028Z,15.63
2022-08-17T09:30:19.834Z,14.25
2022-08-17T09:32:52.170Z,8.85
2022-08-17T09:35:25.179Z,14.77
2022-08-17T09:38:16.076Z,12.52
2022-08-17T09:40:51.690Z,11.55
2022-08-17T09:43:28.895Z,13.07
2022-08-17T09:46:01.962Z,9.85
2022-08-17T09:51:07.068Z,9.25
2022-08-17T09:53:38.654Z,9.95
2022-08-17T09:56:27.215Z,9.23
2022-08-17T09:59:11.265Z,11.55
2022-08-17T10:01:44.110Z,9.48
2022-08-17T10:04:33.838Z,8.13
2022-08-17T10:07:11.219Z,8.00
2022-08-17T10:09:55.728Z,17.48
2022-08-17T10:12:35.253Z,11.52
2022-08-17T10:15:17.327Z,17.10
2022-08-17T10:17:56.465Z,9.52
2022-08-17T10:20:30.652Z,10.15
2022-08-17T10:23:19.997Z,7.80
2022-08-17T10:26:10.368Z,9.60
2022-08-17T10:28:44.046Z,6.80
2022-08-17T10:31:34.161Z,8.00
2022-08-17T10:34:36.160Z,9.05
2022-08-17T10:37:26.297Z,4.32
2022-08-17T10:40:08.711Z,9.00
2022-08-17T10:42:48.926Z,5.27
2022-08-17T10:45:26.337Z,5.00
2022-08-17T10:48:04.711Z,6.78
2022-08-17T10:50:50.299Z,9.93
2022-08-17T10:53:56.271Z,6.63
2022-08-17T10:56:39.486Z,5.57
2022-08-17T11:02:05.400Z,7.55
2022-08-17T11:04:49.954Z,4.95
2022-08-17T11:07:27.963Z,5.50
2022-08-17T11:10:19.921Z,4.85
2022-08-17T11:12:55.508Z,5.68
2022-08-17T11:15:43.098Z,4.30
2022-08-17T11:18:36.566Z,6.95
2022-08-17T11:24:16.612Z,4.72
2022-08-17T11:29:24.812Z,6.25
2022-08-17T11:32:06.107Z,5.38
2022-08-17T11:34:35.151Z,6.88
2022-08-17T11:37:37.327Z,4.47
2022-08-17T11:40:32.372Z,6.10
2022-08-17T11:43:33.143Z,6.63
2022-08-17T11:46:14.367Z,7.05
2022-08-17T11:49:08.225Z,7.00
2022-08-17T11:52:11.718Z,5.78
2022-08-17T11:54:45.276Z,4.70
2022-08-17T11:58:01.008Z,5.43
2022-08-17T12:00:51.453Z,6.20
2022-08-17T12:03:53.996Z,5.88
2022-08-17T12:06:35.929Z,8.65
2022-08-17T12:09:12.079Z,7.75
2022-08-17T12:12:11.202Z,10.68
2022-08-17T12:15:05.975Z,6.85
2022-08-17T12:17:41.550Z,5.70
2022-08-17T12:20:16.374Z,6.30
2022-08-17T12:22:56.586Z,6.50
2022-08-17T12:25:31.464Z,10.23
2022-08-17T12:28:06.139Z,6.10
2022-08-17T12:30:37.008Z,5.72
2022-08-17T12:33:12.584Z,8.20
2022-08-17T12:35:43.304Z,4.97
2022-08-17T12:38:32.081Z,5.20
2022-08-17T12:41:24.538Z,7.65
2022-08-17T12:44:01.648Z,6.60
2022-08-17T12:46:33.704Z,5.20
2022-08-17T12:49:16.471Z,5.15
2022-08-17T12:51:47.976Z,4.95
2022-08-17T12:54:26.377Z,4.18
2022-08-17T12:56:55.633Z,4.75
2022-08-17T12:59:30.087Z,3.78
2022-08-17T13:01:59.182Z,4.68
2022-08-17T13:04:29.534Z,5.93
2022-08-17T13:06:59.974Z,4.85
2022-08-17T13:09:35.389Z,7.10
2022-08-17T13:12:09.003Z,5.70
2022-08-17T13:14:37.230Z,5.57
2022-08-17T13:17:11.055Z,7.50
2022-08-17T13:19:49.543Z,6.15
2022-08-17T13:22:24.010Z,5.30
2022-08-17T13:24:55.438Z,6.50
2022-08-17T13:27:25.990Z,5.50
2022-08-17T13:29:57.588Z,7.47
2022-08-17T13:32:43.009Z,7.72
2022-08-17T13:35:39.604Z,6.85
2022-08-17T13:38:12.845Z,4.47
2022-08-17T13:43:12.168Z,3.88
2022-08-17T13:46:09.259Z,7.97
2022-08-17T13:48:37.652Z,6.68
2022-08-17T13:51:31.757Z,3.55
2022-08-17T13:54:06.529Z,5.82
2022-08-17T13:56:40.991Z,3.30
2022-08-17T13:59:12.540Z,4.57
2022-08-17T14:01:43.192Z,4.53
2022-08-17T14:04:15.255Z,5.13
2022-08-17T14:06:52.217Z,8.00
2022-08-17T14:09:25.604Z,6.75
2022-08-17T14:11:55.160Z,3.55
2022-08-17T14:14:24.241Z,3.72
2022-08-17T14:16:52.966Z,4.63
2022-08-17T14:19:22.320Z,3.65
2022-08-17T14:21:51.317Z,8.50
2022-08-17T14:24:26.602Z,4.68
2022-08-17T14:26:55.961Z,7.35
2022-08-17T14:29:25.970Z,4.32
2022-08-17T14:31:54.786Z,7.63
2022-08-17T14:34:23.791Z,6.32
2022-08-17T14:36:52.213Z,5.75
2022-08-17T14:39:21.357Z,4.30
2022-08-17T14:41:53.038Z,6.10
2022-08-17T14:44:21.152Z,4.53
2022-08-17T14:46:50.516Z,4.07
2022-08-17T14:49:20.725Z,3.50
2022-08-17T14:51:48.979Z,3.75
2022-08-17T14:54:33.693Z,5.35
2022-08-17T14:57:23.664Z,7.03
2022-08-17T14:59:55.916Z,5.43
2022-08-17T15:02:29.176Z,6.32
2022-08-17T15:05:00.567Z,3.08
2022-08-17T15:07:30.892Z,4.82
2022-08-17T15:10:00.903Z,5.40
2022-08-17T15:12:33.600Z,4.32
2022-08-17T15:15:04.866Z,4.68
2022-08-17T15:17:44.375Z,4.87
2022-08-17T15:20:15.402Z,4.97
2022-08-17T15:22:45.594Z,4.95
2022-08-17T15:25:14.696Z,4.80
2022-08-17T15:27:44.233Z,4.22
2022-08-17T15:30:13.336Z,6.90
2022-08-17T15:32:51.196Z,5.43
2022-08-17T15:35:27.908Z,4.13
2022-08-17T15:37:58.387Z,6.75
2022-08-17T15:40:26.783Z,4.45
2022-08-17T15:42:57.892Z,5.70
2022-08-17T15:45:28.363Z,5.43
2022-08-17T15:47:56.511Z,2.78
2022-08-17T15:50:24.724Z,3.42
2022-08-17T15:52:58.370Z,6.38
2022-08-17T15:55:28.945Z,6.13
2022-08-17T15:57:58.976Z,4.50
2022-08-17T16:00:28.537Z,9.30
2022-08-17T16:03:47.144Z,6.75
2022-08-17T16:05:50.254Z,5.70
2022-08-17T16:08:21.251Z,6.65
2022-08-17T16:10:50.072Z,4.65
2022-08-17T16:13:20.481Z,4.50
2022-08-17T16:15:57.252Z,4.60
2022-08-17T16:18:31.056Z,6.32
2022-08-17T16:21:20.587Z,3.35
2022-08-17T16:23:49.257Z,8.20
2022-08-17T16:26:18.068Z,5.45
2022-08-17T16:28:48.243Z,6.75
2022-08-17T16:31:16.672Z,5.95
2022-08-17T16:33:58.429Z,6.32
2022-08-17T16:36:34.108Z,9.63
2022-08-17T16:39:02.506Z,3.88
2022-08-17T16:41:45.568Z,5.43
2022-08-17T16:44:16.679Z,5.43
2022-08-17T16:46:46.193Z,3.92
2022-08-17T16:49:35.169Z,5.13
2022-08-17T16:52:04.319Z,4.32
2022-08-17T16:54:32.667Z,5.43
2022-08-17T16:57:00.788Z,3.83
2022-08-17T16:59:39.652Z,7.25
2022-08-17T17:04:47.518Z,5.68
2022-08-17T17:07:44.869Z,7.97
2022-08-17T17:10:16.369Z,5.90
2022-08-17T17:13:01.350Z,5.18
2022-08-17T17:15:47.443Z,6.22
2022-08-17T17:18:17.146Z,6.53
2022-08-17T17:20:50.821Z,6.70
2022-08-17T17:23:48.396Z,5.80
2022-08-17T17:26:28.965Z,6.43
2022-08-17T17:29:06.325Z,8.75
2022-08-17T17:31:42.374Z,7.22
2022-08-17T17:34:15.947Z,9.15
2022-08-17T17:36:48.689Z,8.35
2022-08-17T17:39:20.107Z,6.13
2022-08-17T17:41:54.217Z,12.18
2022-08-17T17:44:28.423Z,6.10
2022-08-17T17:47:00.465Z,12.68
2022-08-17T17:49:31.994Z,7.40
2022-08-17T17:52:14.231Z,6.82
2022-08-17T17:54:59.743Z,10.50
2022-08-17T17:57:40.536Z,13.55
2022-08-17T18:00:14.972Z,8.90
2022-08-17T18:03:02.499Z,9.48
2022-08-17T18:05:48.755Z,8.70
2022-08-17T18:08:34.998Z,9.30
2022-08-17T18:11:14.277Z,6.88
2022-08-17T18:14:06.782Z,7.93
2022-08-17T18:16:35.923Z,7.28
2022-08-17T18:19:07.180Z,7.85
2022-08-17T18:21:39.477Z,11.93
2022-08-17T18:24:10.556Z,7.85
2022-08-17T18:26:57.747Z,12.77
2022-08-17T18:29:32.457Z,8.20
2022-08-17T18:32:40.033Z,11.43
2022-08-17T18:35:35.226Z,6.82
2022-08-17T18:38:22.513Z,8.25
2022-08-17T18:41:00.765Z,6.05
2022-08-17T18:43:43.789Z,6.03
2022-08-17T18:46:28.876Z,7.68
2022-08-17T18:49:00.088Z,6.85
2022-08-17T18:51:40.975Z,5.68
2022-08-17T18:54:20.565Z,7.47
2022-08-17T18:56:56.717Z,8.68
2022-08-17T18:59:29.514Z,8.32
2022-08-17T19:02:34.547Z,6.38
2022-08-17T19:05:13.381Z,14.68
2022-08-17T19:07:45.251Z,13.45
2022-08-17T19:10:22.423Z,8.25
2022-08-17T19:13:00.758Z,9.00
2022-08-17T19:15:35.811Z,8.10
2022-08-17T19:18:15.140Z,9.80
2022-08-17T19:20:48.774Z,10.82
2022-08-17T19:23:25.210Z,10.55
2022-08-17T19:25:58.433Z,7.18
2022-08-17T19:30:59.460Z,10.88
2022-08-17T19:33:28.175Z,7.57
2022-08-17T19:36:06.982Z,9.10
2022-08-17T19:38:43.421Z,7.25
2022-08-17T19:41:20.421Z,8.80
2022-08-17T19:44:07.809Z,9.52
2022-08-17T19:46:49.909Z,8.80
2022-08-17T19:49:40.525Z,9.77
2022-08-17T19:52:36.319Z,8.65
2022-08-17T19:55:19.792Z,6.70
2022-08-17T19:58:00.786Z,6.55
2022-08-17T20:00:31.242Z,5.70
2022-08-17T20:03:06.388Z,9.23
2022-08-17T20:06:08.677Z,11.15
2022-08-17T20:08:30.529Z,10.02
2022-08-17T20:11:04.332Z,11.90
2022-08-17T20:13:37.024Z,8.63
2022-08-17T20:16:06.218Z,7.80
2022-08-17T20:18:47.626Z,11.52
2022-08-17T20:21:20.660Z,9.20
2022-08-17T20:23:56.502Z,10.10
2022-08-17T20:26:35.254Z,11.27
2022-08-17T20:29:10.796Z,10.43
2022-08-17T20:31:49.049Z,11.38
2022-08-17T20:34:36.785Z,10.60
2022-08-17T20:37:09.634Z,9.85
2022-08-17T20:39:43.181Z,9.07
2022-08-17T20:42:32.397Z,11.88
2022-08-17T20:45:05.385Z,11.00
2022-08-17T20:47:36.870Z,8.10
2022-08-17T20:50:08.090Z,12.32
2022-08-17T20:52:46.855Z,10.32
2022-08-17T20:55:53.291Z,13.05
2022-08-17T20:58:47.740Z,7.65
2022-08-17T21:01:24.460Z,13.38
2022-08-17T21:03:54.239Z,7.65
2022-08-17T21:06:26.075Z,7.93
2022-08-17T21:09:19.205Z,6.68
2022-08-17T21:12:04.647Z,9.77
2022-08-17T21:14:58.163Z,7.50
2022-08-17T21:17:49.886Z,11.63
2022-08-17T21:20:33.906Z,7.30
2022-08-17T21:23:23.805Z,8.32
2022-08-17T21:26:05.558Z,7.13
2022-08-17T21:28:59.872Z,11.57
2022-08-17T21:31:34.509Z,8.13
2022-08-17T21:34:27.169Z,9.18
2022-08-17T21:36:56.896Z,7.95
2022-08-17T21:39:33.240Z,10.55
2022-08-17T21:42:01.940Z,9.80
2022-08-17T21:44:35.046Z,8.02
2022-08-17T21:47:23.629Z,8.20
2022-08-17T21:49:52.286Z,7.53
2022-08-17T21:52:23.841Z,7.90
2022-08-17T21:54:57.093Z,10.40
2022-08-17T21:57:28.297Z,7.78
2022-08-17T21:59:59.748Z,11.68
2022-08-17T22:02:33.499Z,7.03
2022-08-17T22:05:03.562Z,7.45
2022-08-17T22:07:38.159Z,12.48
2022-08-17T22:10:08.087Z,9.88
2022-08-17T22:12:36.560Z,7.68
2022-08-17T22:15:07.523Z,9.77
2022-08-17T22:17:41.212Z,10.10
2022-08-17T22:20:14.580Z,9.07
2022-08-17T22:23:25.326Z,8.10
2022-08-17T22:26:02.269Z,5.80
2022-08-17T22:28:38.968Z,10.88
2022-08-17T22:31:08.628Z,10.75
2022-08-17T22:33:41.972Z,11.20
2022-08-17T22:36:24.642Z,7.65
2022-08-17T22:38:55.114Z,8.65
2022-08-17T22:41:37.309Z,9.60
2022-08-17T22:44:16.421Z,5.78
2022-08-17T22:47:01.943Z,8.55
2022-08-17T22:49:36.880Z,7.53
2022-08-17T22:52:31.558Z,7.88
2022-08-17T22:55:30.668Z,4.40
2022-08-17T22:58:16.495Z,5.53
2022-08-17T23:00:47.711Z,5.07
2022-08-17T23:03:19.405Z,7.40
2022-08-17T23:06:03.783Z,7.38
2022-08-17T23:08:34.596Z,5.55
2022-08-17T23:11:02.992Z,7.38
2022-08-17T23:13:33.509Z,6.40
2022-08-17T23:16:02.459Z,9.90
2022-08-17T23:18:30.592Z,8.75
2022-08-17T23:21:01.301Z,7.80
2022-08-17T23:23:31.373Z,7.55
2022-08-17T23:25:59.482Z,8.52
2022-08-17T23:28:28.546Z,9.07
2022-08-17T23:30:56.688Z,7.78
2022-08-17T23:33:30.992Z,4.97
2022-08-17T23:36:00.522Z,6.00
2022-08-17T23:38:29.274Z,7.00
2022-08-17T23:41:00.032Z,9.20
2022-08-17T23:43:29.840Z,7.47
2022-08-17T23:45:59.794Z,8.00
2022-08-17T23:48:36.636Z,12.98
2022-08-17T23:51:13.640Z,8.00
2022-08-17T23:53:46.402Z,9.35
2022-08-17T23:56:15.600Z,6.73
2022-08-17T23:58:45.122Z,7.72
